createdAt,value
2019-04-30T00:01:48.599Z,93.29
2019-04-30T00:04:25.387Z,93.29
2019-04-30T00:06:55.799Z,93.36
2019-04-30T00:09:26.747Z,93.47
2019-04-30T00:12:01.064Z,93.58
2019-04-30T00:14:32.490Z,93.63
2019-04-30T00:16:59.462Z,93.50
2019-04-30T00:19:28.853Z,93.58
2019-04-30T00:22:00.886Z,93.23
2019-04-30T00:24:31.614Z,93.57
2019-04-30T00:27:02.150Z,93.57
2019-04-30T00:29:31.560Z,93.47
2019-04-30T00:32:04.535Z,93.52
2019-04-30T00:34:35.885Z,93.46
2019-04-30T00:37:07.428Z,93.38
2019-04-30T00:39:35.893Z,93.46
2019-04-30T00:42:05.582Z,93.65
2019-04-30T00:44:36.510Z,93.67
2019-04-30T00:47:09.065Z,93.71
2019-04-30T00:49:38.570Z,93.74
2019-04-30T00:52:09.598Z,93.86
2019-04-30T00:54:40.223Z,93.69
2019-04-30T00:57:11.323Z,93.64
2019-04-30T00:59:44.651Z,93.77
2019-04-30T01:02:19.967Z,93.99
2019-04-30T01:04:48.756Z,93.92
2019-04-30T01:07:18.714Z,93.93
2019-04-30T01:09:49.858Z,93.98
2019-04-30T01:12:27.658Z,93.59
2019-04-30T01:14:51.139Z,93.51
2019-04-30T01:17:20.726Z,93.25
2019-04-30T01:19:54.280Z,93.40
2019-04-30T01:22:28.171Z,93.54
2019-04-30T01:24:56.542Z,93.69
2019-04-30T01:27:26.209Z,93.43
2019-04-30T01:29:58.491Z,93.45
2019-04-30T01:32:29.013Z,93.53
2019-04-30T01:34:59.016Z,93.67
2019-04-30T01:37:33.046Z,93.38
2019-04-30T01:40:10.580Z,93.38
2019-04-30T01:42:36.065Z,93.38
2019-04-30T01:45:08.754Z,94.18
2019-04-30T01:47:39.706Z,94.18
2019-04-30T01:50:09.339Z,93.67
2019-04-30T01:52:54.821Z,93.78
2019-04-30T01:55:34.487Z,93.78
2019-04-30T01:58:05.502Z,94.17
2019-04-30T02:00:37.112Z,94.09
2019-04-30T02:03:11.208Z,94.07
2019-04-30T02:05:40.782Z,93.69
2019-04-30T02:08:13.419Z,93.15
2019-04-30T02:10:43.460Z,93.74
2019-04-30T02:13:13.118Z,93.74
2019-04-30T02:15:42.803Z,93.82
2019-04-30T02:18:13.205Z,93.74
2019-04-30T02:20:45.350Z,93.55
2019-04-30T02:23:15.030Z,93.55
2019-04-30T02:25:44.840Z,93.66
2019-04-30T02:28:15.977Z,93.66
2019-04-30T02:30:45.368Z,93.37
2019-04-30T02:33:15.042Z,93.34
2019-04-30T02:35:52.250Z,93.46
2019-04-30T02:38:26.483Z,93.48
2019-04-30T02:40:59.604Z,93.42
2019-04-30T02:43:30.230Z,93.55
2019-04-30T02:46:00.173Z,93.54
2019-04-30T02:48:29.909Z,93.42
2019-04-30T02:51:01.170Z,93.26
2019-04-30T02:53:52.033Z,93.14
2019-04-30T02:56:26.536Z,93.14
2019-04-30T02:58:56.154Z,93.13
2019-04-30T03:01:26.185Z,93.19
2019-04-30T03:03:55.866Z,93.29
2019-04-30T03:06:25.225Z,93.28
2019-04-30T03:08:55.648Z,92.53
2019-04-30T03:11:25.164Z,92.53
2019-04-30T03:13:54.529Z,92.96
2019-04-30T03:16:30.322Z,93.02
2019-04-30T03:19:01.647Z,92.83
2019-04-30T03:21:49.990Z,92.83
2019-04-30T03:24:20.742Z,93.04
2019-04-30T03:26:51.761Z,93.38
2019-04-30T03:29:25.510Z,93.41
2019-04-30T03:31:55.030Z,93.37
2019-04-30T03:34:26.500Z,93.37
2019-04-30T03:37:01.664Z,93.05
2019-04-30T03:39:29.682Z,93.35
2019-04-30T03:41:59.828Z,93.45
2019-04-30T03:44:32.337Z,93.47
2019-04-30T03:47:01.423Z,93.56
2019-04-30T03:49:32.667Z,93.50
2019-04-30T03:52:02.159Z,93.50
2019-04-30T03:54:31.814Z,93.25
2019-04-30T03:57:02.602Z,93.22
2019-04-30T03:59:31.973Z,93.20
2019-04-30T04:02:20.868Z,93.39
2019-04-30T04:05:02.421Z,93.69
2019-04-30T04:07:34.909Z,93.69
2019-04-30T04:10:10.265Z,93.46
2019-04-30T04:12:40.142Z,93.74
2019-04-30T04:15:10.706Z,93.76
2019-04-30T04:17:43.424Z,93.72
2019-04-30T04:20:13.377Z,93.57
2019-04-30T04:22:43.875Z,94.27
2019-04-30T04:25:13.537Z,95.12
2019-04-30T04:27:44.158Z,93.75
2019-04-30T04:30:15.514Z,93.75
2019-04-30T04:32:50.093Z,93.96
2019-04-30T04:35:19.974Z,94.98
2019-04-30T04:37:51.868Z,94.41
2019-04-30T04:40:23.792Z,93.41
2019-04-30T04:42:53.188Z,91.98
2019-04-30T04:45:22.576Z,91.62
2019-04-30T04:47:52.472Z,91.18
2019-04-30T04:50:24.510Z,91.18
2019-04-30T04:52:55.015Z,90.49
2019-04-30T04:55:24.404Z,90.49
2019-04-30T04:57:54.108Z,90.57
2019-04-30T05:00:23.504Z,90.68
2019-04-30T05:02:55.362Z,90.85
2019-04-30T05:05:25.004Z,91.82
2019-04-30T05:07:54.516Z,91.60
2019-04-30T05:10:26.099Z,91.66
2019-04-30T05:12:59.286Z,91.92
2019-04-30T05:15:29.522Z,92.03
2019-04-30T05:17:59.340Z,92.07
2019-04-30T05:20:29.545Z,91.85
2019-04-30T05:23:00.300Z,91.74
2019-04-30T05:25:29.723Z,91.48
2019-04-30T05:27:59.197Z,91.06
2019-04-30T05:30:30.278Z,91.06
2019-04-30T05:32:59.696Z,90.41
2019-04-30T05:35:31.002Z,89.90
2019-04-30T05:38:00.580Z,89.65
2019-04-30T05:40:30.914Z,89.95
2019-04-30T05:43:00.490Z,90.21
2019-04-30T05:45:30.365Z,90.21
2019-04-30T05:47:59.776Z,90.23
2019-04-30T05:50:29.750Z,90.22
2019-04-30T05:53:03.448Z,89.93
2019-04-30T05:55:32.831Z,89.94
2019-04-30T05:58:04.440Z,90.66
2019-04-30T06:00:33.828Z,90.76
2019-04-30T06:03:03.347Z,91.50
2019-04-30T06:05:33.827Z,91.50
2019-04-30T06:08:06.040Z,91.94
2019-04-30T06:10:42.150Z,91.43
2019-04-30T06:13:16.113Z,90.36
2019-04-30T06:15:53.031Z,91.74
2019-04-30T06:18:22.703Z,91.49
2019-04-30T06:20:52.324Z,91.58
2019-04-30T06:23:21.694Z,91.72
2019-04-30T06:25:59.315Z,88.43
2019-04-30T06:28:23.765Z,88.43
2019-04-30T06:30:54.613Z,89.70
2019-04-30T06:33:24.304Z,88.88
2019-04-30T06:35:54.627Z,88.75
2019-04-30T06:38:26.043Z,87.27
2019-04-30T06:40:55.494Z,87.09
2019-04-30T06:43:24.875Z,87.09
2019-04-30T06:45:54.609Z,87.12
2019-04-30T06:48:29.391Z,87.27
2019-04-30T06:50:59.782Z,87.59
2019-04-30T06:53:29.411Z,87.74
2019-04-30T06:55:59.210Z,89.27
2019-04-30T06:58:29.222Z,88.76
2019-04-30T07:00:59.582Z,87.20
2019-04-30T07:03:29.617Z,85.37
2019-04-30T07:06:03.247Z,85.17
2019-04-30T07:08:47.136Z,85.23
2019-04-30T07:11:21.722Z,85.23
2019-04-30T07:13:52.581Z,85.85
2019-04-30T07:16:23.642Z,85.83
2019-04-30T07:18:53.331Z,86.33
2019-04-30T07:21:26.203Z,86.00
2019-04-30T07:23:55.820Z,85.52
2019-04-30T07:26:25.760Z,85.38
2019-04-30T07:28:55.676Z,84.88
2019-04-30T07:31:25.464Z,85.48
2019-04-30T07:33:54.838Z,85.41
2019-04-30T07:36:42.427Z,85.51
2019-04-30T07:38:57.032Z,84.63
2019-04-30T07:44:01.075Z,84.07
2019-04-30T07:46:35.114Z,83.08
2019-04-30T07:49:04.730Z,82.43
2019-04-30T07:51:40.252Z,83.35
2019-04-30T07:54:09.292Z,84.31
2019-04-30T07:56:41.732Z,83.01
2019-04-30T07:59:12.004Z,81.38
2019-04-30T08:02:00.568Z,81.06
2019-04-30T08:04:19.602Z,81.06
2019-04-30T08:06:51.504Z,81.45
2019-04-30T08:09:22.704Z,81.83
2019-04-30T08:09:38.317Z,83.84
2019-04-30T08:11:52.090Z,81.58
2019-04-30T08:14:24.487Z,79.38
2019-04-30T08:16:52.912Z,78.15
2019-04-30T08:19:22.858Z,78.03
2019-04-30T08:21:55.084Z,77.12
2019-04-30T08:24:29.209Z,77.37
2019-04-30T08:27:01.306Z,76.89
2019-04-30T08:29:33.951Z,76.22
2019-04-30T08:32:03.618Z,77.05
2019-04-30T08:34:35.345Z,77.45
2019-04-30T08:37:16.684Z,76.47
2019-04-30T08:39:36.195Z,76.56
2019-04-30T08:42:05.959Z,75.10
2019-04-30T08:44:36.880Z,73.86
2019-04-30T08:47:06.241Z,74.12
2019-04-30T08:49:36.250Z,72.41
2019-04-30T08:52:06.186Z,72.08
2019-04-30T08:54:35.917Z,69.57
2019-04-30T08:57:06.186Z,69.43
2019-04-30T08:59:39.491Z,72.55
2019-04-30T09:02:15.944Z,72.76
2019-04-30T09:04:40.873Z,74.20
2019-04-30T09:07:12.374Z,72.24
2019-04-30T09:09:44.698Z,71.63
2019-04-30T09:12:16.107Z,71.06
2019-04-30T09:14:49.021Z,71.30
2019-04-30T09:17:21.925Z,69.93
2019-04-30T09:19:51.653Z,68.86
2019-04-30T09:22:22.325Z,67.54
2019-04-30T09:24:51.910Z,68.54
2019-04-30T09:27:22.747Z,68.27
2019-04-30T09:29:52.165Z,69.72
2019-04-30T09:32:22.168Z,68.94
2019-04-30T09:34:53.494Z,67.99
2019-04-30T09:37:24.929Z,68.70
2019-04-30T09:39:54.346Z,67.24
2019-04-30T09:42:24.050Z,66.47
2019-04-30T09:44:57.253Z,66.55
2019-04-30T09:47:29.550Z,64.76
2019-04-30T09:50:00.015Z,63.27
2019-04-30T09:52:31.704Z,63.32
2019-04-30T09:55:02.206Z,64.60
2019-04-30T09:57:31.953Z,64.21
2019-04-30T10:00:01.643Z,65.38
2019-04-30T10:02:32.851Z,63.67
2019-04-30T10:05:02.944Z,63.93
2019-04-30T10:07:34.099Z,62.99
2019-04-30T10:10:08.865Z,63.98
2019-04-30T10:12:39.152Z,63.03
2019-04-30T10:15:13.712Z,63.50
2019-04-30T10:17:50.930Z,63.10
2019-04-30T10:20:26.075Z,60.45
2019-04-30T10:22:57.002Z,60.24
2019-04-30T10:25:28.277Z,61.00
2019-04-30T10:27:59.829Z,60.30
2019-04-30T10:30:33.023Z,60.12
2019-04-30T10:33:02.415Z,60.08
2019-04-30T10:35:32.961Z,59.21
2019-04-30T10:38:03.468Z,59.01
2019-04-30T10:40:33.058Z,57.76
2019-04-30T10:43:02.503Z,58.23
2019-04-30T10:45:32.061Z,58.67
2019-04-30T10:48:02.989Z,57.73
2019-04-30T10:50:32.354Z,58.23
2019-04-30T10:53:02.612Z,57.49
2019-04-30T10:55:33.625Z,58.51
2019-04-30T10:58:03.149Z,57.58
2019-04-30T11:00:38.954Z,58.70
2019-04-30T11:03:19.598Z,57.56
2019-04-30T11:05:41.261Z,59.46
2019-04-30T11:08:13.062Z,56.95
2019-04-30T11:10:44.133Z,58.00
2019-04-30T11:13:14.204Z,58.61
2019-04-30T11:15:44.541Z,56.85
2019-04-30T11:18:14.563Z,57.24
2019-04-30T11:20:44.976Z,56.96
2019-04-30T11:23:15.239Z,55.75
2019-04-30T11:25:45.400Z,54.35
2019-04-30T11:28:15.893Z,54.35
2019-04-30T11:30:46.254Z,54.59
2019-04-30T11:33:17.153Z,54.16
2019-04-30T11:35:47.016Z,52.23
2019-04-30T11:38:20.391Z,51.98
2019-04-30T11:40:49.026Z,52.65
2019-04-30T11:43:20.185Z,52.97
2019-04-30T11:45:55.717Z,52.57
2019-04-30T11:48:26.809Z,51.84
2019-04-30T11:50:59.523Z,51.64
2019-04-30T11:53:30.684Z,51.60
2019-04-30T11:56:00.472Z,49.59
2019-04-30T11:58:30.589Z,49.95
2019-04-30T12:01:02.618Z,49.66
2019-04-30T12:03:33.912Z,49.59
2019-04-30T12:06:04.821Z,49.64
2019-04-30T12:08:52.574Z,49.50
2019-04-30T12:11:42.270Z,47.53
2019-04-30T12:14:12.557Z,47.74
2019-04-30T12:16:43.198Z,47.30
2019-04-30T12:19:12.655Z,45.95
2019-04-30T12:21:42.173Z,46.62
2019-04-30T12:24:12.534Z,46.88
2019-04-30T12:51:45.838Z,46.30
2019-04-30T12:54:14.230Z,44.95
2019-04-30T12:56:51.272Z,45.77
2019-04-30T12:59:21.303Z,45.86
2019-04-30T13:01:50.662Z,47.45
2019-04-30T13:04:20.591Z,47.45
2019-04-30T13:06:51.054Z,46.49
2019-04-30T13:09:21.446Z,44.54
2019-04-30T13:11:52.078Z,44.20
2019-04-30T13:14:22.885Z,42.39
2019-04-30T13:16:52.731Z,43.10
2019-04-30T13:19:22.986Z,43.05
2019-04-30T13:21:52.354Z,41.59
2019-04-30T13:24:22.472Z,43.20
2019-04-30T13:26:51.864Z,41.28
2019-04-30T13:29:25.860Z,42.99
2019-04-30T13:31:58.246Z,43.80
2019-04-30T13:34:45.647Z,43.34
2019-04-30T13:37:15.283Z,43.48
2019-04-30T13:39:55.261Z,44.42
2019-04-30T13:42:35.337Z,44.19
2019-04-30T13:45:07.076Z,44.12
2019-04-30T13:47:36.437Z,44.27
2019-04-30T13:50:06.511Z,43.19
2019-04-30T13:52:35.875Z,43.65
2019-04-30T13:55:10.721Z,44.20
2019-04-30T13:57:38.722Z,43.74
2019-04-30T14:00:11.964Z,44.37
2019-04-30T14:02:44.794Z,44.75
2019-04-30T14:05:16.380Z,44.59
2019-04-30T14:07:56.421Z,43.23
2019-04-30T14:10:25.802Z,43.54
2019-04-30T14:12:57.000Z,44.33
2019-04-30T14:15:26.752Z,43.16
2019-04-30T14:17:56.629Z,43.94
2019-04-30T14:20:26.668Z,43.22
2019-04-30T14:22:57.546Z,43.95
2019-04-30T14:25:26.992Z,44.34
2019-04-30T14:27:56.459Z,43.21
2019-04-30T14:30:26.373Z,44.54
2019-04-30T14:32:55.738Z,43.13
2019-04-30T14:35:25.122Z,44.57
2019-04-30T14:37:54.514Z,46.24
2019-04-30T14:40:24.782Z,45.00
2019-04-30T14:42:59.751Z,45.70
2019-04-30T14:45:40.628Z,45.07
2019-04-30T14:48:12.917Z,46.19
2019-04-30T14:50:42.831Z,45.17
2019-04-30T14:53:14.480Z,46.84
2019-04-30T14:55:49.549Z,45.37
2019-04-30T14:58:29.546Z,44.53
2019-04-30T15:01:06.168Z,43.93
2019-04-30T15:03:36.598Z,43.88
2019-04-30T15:06:05.993Z,44.10
2019-04-30T15:08:36.598Z,43.59
2019-04-30T15:11:05.984Z,42.77
2019-04-30T15:13:35.587Z,43.00
2019-04-30T15:16:35.358Z,42.53
2019-04-30T15:19:04.864Z,43.12
2019-04-30T15:21:34.524Z,43.35
2019-04-30T15:24:21.610Z,43.44
2019-04-30T15:26:57.573Z,44.32
2019-04-30T15:29:23.129Z,43.50
2019-04-30T15:31:52.758Z,43.46
2019-04-30T15:34:22.731Z,43.68
2019-04-30T15:36:52.114Z,44.16
2019-04-30T15:39:26.654Z,44.30
2019-04-30T15:41:56.019Z,44.06
2019-04-30T15:44:25.931Z,43.60
2019-04-30T15:46:55.782Z,44.24
2019-04-30T15:49:25.429Z,45.25
2019-04-30T15:51:54.827Z,45.40
2019-04-30T15:54:24.511Z,44.96
2019-04-30T15:56:53.911Z,44.90
2019-04-30T15:59:24.979Z,45.86
2019-04-30T16:01:56.435Z,46.17
2019-04-30T16:04:44.556Z,46.54
2019-04-30T16:07:14.087Z,46.13
2019-04-30T16:09:51.633Z,46.93
2019-04-30T16:12:22.667Z,47.22
2019-04-30T16:14:52.045Z,47.11
2019-04-30T16:17:23.467Z,47.78
2019-04-30T16:19:52.867Z,47.32
2019-04-30T16:22:22.337Z,48.60
2019-04-30T16:24:54.443Z,47.91
2019-04-30T16:27:22.863Z,48.25
2019-04-30T16:29:52.257Z,48.53
2019-04-30T16:32:24.639Z,48.46
2019-04-30T16:34:54.019Z,49.22
2019-04-30T16:37:23.687Z,49.60
2019-04-30T16:39:53.088Z,49.82
2019-04-30T16:42:22.712Z,49.71
2019-04-30T16:44:52.097Z,50.56
2019-04-30T16:47:21.775Z,50.87
2019-04-30T16:49:51.183Z,50.87
2019-04-30T16:52:21.202Z,51.25
2019-04-30T16:54:50.804Z,51.85
2019-04-30T16:57:20.514Z,51.63
2019-04-30T16:59:51.032Z,52.38
2019-04-30T17:02:22.698Z,52.74
2019-04-30T17:04:56.126Z,52.26
2019-04-30T17:07:30.212Z,52.38
2019-04-30T17:10:09.021Z,53.02
2019-04-30T17:12:43.293Z,53.52
2019-04-30T17:15:14.912Z,53.33
2019-04-30T17:17:44.296Z,53.44
2019-04-30T17:20:14.612Z,53.61
2019-04-30T17:22:43.987Z,54.61
2019-04-30T17:25:13.745Z,53.75
2019-04-30T17:27:43.386Z,54.20
2019-04-30T17:30:13.649Z,55.07
2019-04-30T17:32:43.021Z,55.86
2019-04-30T17:35:13.390Z,55.92
2019-04-30T17:37:43.001Z,55.56
2019-04-30T17:40:13.323Z,55.54
2019-04-30T17:42:42.952Z,56.15
2019-04-30T17:45:13.453Z,56.08
2019-04-30T17:47:43.297Z,56.84
2019-04-30T17:50:13.770Z,57.72
2019-04-30T17:52:43.158Z,58.20
2019-04-30T17:55:13.616Z,58.83
2019-04-30T17:57:43.006Z,59.32
2019-04-30T18:00:19.998Z,60.27
2019-04-30T18:02:46.490Z,61.03
2019-04-30T18:05:16.275Z,61.03
2019-04-30T18:07:45.916Z,61.02
2019-04-30T18:10:17.037Z,60.96
2019-04-30T18:12:46.436Z,61.48
2019-04-30T18:15:17.933Z,61.82
2019-04-30T18:17:49.034Z,62.13
2019-04-30T18:20:36.712Z,62.06
2019-04-30T18:23:24.314Z,62.47
2019-04-30T18:26:01.424Z,63.05
2019-04-30T18:28:31.098Z,63.61
2019-04-30T18:31:00.485Z,63.70
2019-04-30T18:33:30.066Z,63.91
2019-04-30T18:35:59.731Z,64.12
2019-04-30T18:38:31.131Z,64.54
2019-04-30T18:41:00.596Z,64.69
2019-04-30T18:43:30.160Z,65.04
2019-04-30T18:46:00.683Z,65.17
2019-04-30T18:48:30.384Z,65.68
2019-04-30T18:51:00.027Z,65.83
2019-04-30T18:53:31.346Z,65.55
2019-04-30T18:56:01.293Z,64.97
2019-04-30T18:58:39.210Z,65.62
2019-04-30T19:01:02.305Z,65.76
2019-04-30T19:03:32.020Z,65.72
2019-04-30T19:06:03.060Z,65.60
2019-04-30T19:08:50.023Z,65.84
2019-04-30T19:11:30.716Z,65.67
2019-04-30T19:14:09.422Z,65.82
2019-04-30T19:16:46.613Z,66.03
2019-04-30T19:19:19.554Z,66.55
2019-04-30T19:21:49.223Z,66.71
2019-04-30T19:24:19.715Z,66.88
2019-04-30T19:26:50.362Z,67.09
2019-04-30T19:29:20.032Z,67.26
2019-04-30T19:31:49.533Z,67.42
2019-04-30T19:34:19.169Z,67.58
2019-04-30T19:36:49.225Z,67.66
2019-04-30T19:39:20.093Z,67.90
2019-04-30T19:41:50.539Z,68.18
2019-04-30T19:44:21.092Z,68.46
2019-04-30T19:46:50.876Z,68.63
2019-04-30T19:49:20.581Z,68.93
2019-04-30T19:51:53.137Z,69.04
2019-04-30T19:54:22.527Z,69.02
2019-04-30T19:56:52.071Z,69.32
2019-04-30T19:59:21.431Z,69.54
2019-04-30T20:01:50.994Z,69.73
2019-04-30T20:04:32.796Z,69.94
2019-04-30T20:06:52.169Z,70.13
2019-04-30T20:09:21.908Z,70.35
2019-04-30T20:11:51.403Z,70.51
2019-04-30T20:14:21.055Z,70.57
2019-04-30T20:16:50.428Z,70.81
2019-04-30T20:19:20.145Z,71.03
2019-04-30T20:21:53.668Z,71.30
2019-04-30T20:24:21.256Z,71.45
2019-04-30T20:26:58.277Z,71.63
2019-04-30T20:29:22.318Z,71.99
2019-04-30T20:31:52.051Z,72.15
2019-04-30T20:34:21.437Z,72.36
2019-04-30T20:36:51.116Z,72.77
2019-04-30T20:39:23.445Z,72.77
2019-04-30T20:41:53.382Z,73.07
2019-04-30T20:44:23.078Z,73.30
2019-04-30T20:46:52.461Z,73.42
2019-04-30T20:49:21.852Z,73.68
2019-04-30T20:51:55.246Z,74.01
2019-04-30T20:54:22.656Z,74.28
2019-04-30T20:56:52.143Z,74.21
2019-04-30T20:59:21.538Z,74.41
2019-04-30T21:01:51.101Z,74.52
2019-04-30T21:04:21.049Z,74.56
2019-04-30T21:06:50.775Z,75.03
2019-04-30T21:09:20.507Z,75.31
2019-04-30T21:11:50.211Z,75.50
2019-04-30T21:14:19.610Z,75.87
2019-04-30T21:16:49.163Z,76.05
2019-04-30T21:19:18.839Z,76.20
2019-04-30T21:21:49.714Z,76.37
2019-04-30T21:24:19.484Z,76.75
2019-04-30T21:26:49.450Z,76.80
2019-04-30T21:29:19.813Z,76.74
2019-04-30T21:32:03.195Z,76.77
2019-04-30T21:34:34.225Z,76.58
2019-04-30T21:37:03.603Z,76.59
2019-04-30T21:39:33.588Z,76.76
2019-04-30T21:42:03.275Z,76.96
2019-04-30T21:44:32.675Z,77.09
2019-04-30T21:47:03.245Z,77.65
2019-04-30T21:49:32.626Z,78.04
2019-04-30T21:52:02.307Z,78.37
2019-04-30T21:54:31.706Z,78.75
2019-04-30T21:57:01.387Z,79.06
2019-04-30T21:59:30.750Z,78.95
2019-04-30T22:02:00.330Z,79.18
2019-04-30T22:04:29.714Z,79.25
2019-04-30T22:06:59.598Z,79.45
2019-04-30T22:09:29.639Z,79.42
2019-04-30T22:11:59.351Z,79.48
2019-04-30T22:14:29.025Z,80.15
2019-04-30T22:16:59.381Z,80.15
2019-04-30T22:19:28.958Z,80.10
2019-04-30T22:21:59.475Z,80.36
2019-04-30T22:24:30.508Z,80.58
2019-04-30T22:27:01.351Z,81.25
2019-04-30T22:29:39.093Z,81.25
2019-04-30T22:32:01.887Z,80.78
2019-04-30T22:34:31.319Z,80.61
2019-04-30T22:37:00.689Z,80.67
2019-04-30T22:39:32.013Z,80.83
2019-04-30T22:42:20.710Z,81.06
2019-04-30T22:44:50.454Z,81.47
2019-04-30T22:47:19.824Z,82.06
2019-04-30T22:49:49.434Z,82.17
2019-04-30T22:52:21.782Z,82.04
2019-04-30T22:54:50.539Z,82.06
2019-04-30T22:57:19.903Z,82.06
2019-04-30T22:59:50.254Z,82.13
2019-04-30T23:02:30.084Z,82.55
2019-04-30T23:05:01.058Z,82.88
2019-04-30T23:07:31.499Z,83.27
2019-04-30T23:10:00.896Z,83.60
2019-04-30T23:12:30.518Z,84.16
2019-04-30T23:14:59.912Z,84.01
2019-04-30T23:17:29.581Z,84.15
2019-04-30T23:19:58.984Z,84.31
2019-04-30T23:22:28.673Z,84.59
2019-04-30T23:24:58.059Z,84.72
2019-04-30T23:27:27.755Z,84.81
2019-04-30T23:30:03.448Z,85.63
2019-04-30T23:32:28.524Z,85.63
2019-04-30T23:34:57.904Z,85.66
2019-04-30T23:37:28.102Z,85.58
2019-04-30T23:40:01.212Z,85.69
2019-04-30T23:42:30.588Z,85.88
2019-04-30T23:44:59.989Z,85.85
2019-04-30T23:47:29.481Z,86.07
2019-04-30T23:49:58.884Z,86.15
2019-04-30T23:52:28.262Z,85.86
2019-04-30T23:54:58.047Z,85.37
2019-04-30T23:57:27.729Z,85.45
2019-04-30T23:59:57.439Z,85.10
